createdAt,value
2023-04-03T00:00:34.640Z,87.21
2023-04-03T00:03:01.704Z,87.42
2023-04-03T00:05:28.443Z,87.40
2023-04-03T00:07:55.154Z,87.55
2023-04-03T00:10:21.847Z,87.59
2023-04-03T00:12:48.592Z,87.53
2023-04-03T00:15:15.496Z,87.63
2023-04-03T00:17:42.903Z,87.57
2023-04-03T00:20:09.819Z,87.55
2023-04-03T00:22:36.544Z,87.55
2023-04-03T00:25:04.230Z,87.67
2023-04-03T00:27:30.955Z,87.92
2023-04-03T00:29:57.697Z,87.75
2023-04-03T00:32:24.416Z,87.95
2023-04-03T00:34:51.286Z,88.00
2023-04-03T00:37:17.989Z,88.08
2023-04-03T00:39:44.648Z,88.00
2023-04-03T00:42:12.027Z,88.23
2023-04-03T00:44:38.639Z,88.10
2023-04-03T00:47:08.156Z,88.07
2023-04-03T00:49:36.413Z,88.20
2023-04-03T00:52:03.778Z,88.25
2023-04-03T00:54:30.950Z,88.49
2023-04-03T00:56:59.160Z,88.37
2023-04-03T00:59:31.287Z,88.52
2023-04-03T01:02:00.294Z,88.51
2023-04-03T01:04:34.573Z,88.44
2023-04-03T01:07:27.547Z,88.54
2023-04-03T01:09:58.766Z,88.59
2023-04-03T01:12:36.813Z,88.45
2023-04-03T01:15:11.201Z,88.58
2023-04-03T01:17:42.006Z,88.61
2023-04-03T01:20:34.187Z,88.88
2023-04-03T01:23:09.898Z,88.79
2023-04-03T01:25:41.705Z,88.75
2023-04-03T01:28:12.098Z,88.81
2023-04-03T01:30:48.607Z,89.05
2023-04-03T01:33:16.375Z,89.06
2023-04-03T01:35:43.076Z,89.30
2023-04-03T01:38:09.757Z,89.32
2023-04-03T01:40:37.229Z,89.49
2023-04-03T01:43:04.284Z,89.55
2023-04-03T01:45:31.148Z,89.68
2023-04-03T01:47:57.955Z,89.95
2023-04-03T01:50:24.680Z,90.12
2023-04-03T01:52:51.353Z,90.15
2023-04-03T01:55:17.985Z,90.26
2023-04-03T01:57:44.624Z,90.28
2023-04-03T02:00:11.672Z,90.30
2023-04-03T02:02:38.492Z,90.66
2023-04-03T02:05:05.836Z,90.64
2023-04-03T02:07:32.601Z,90.64
2023-04-03T02:09:59.273Z,90.82
2023-04-03T02:12:25.971Z,91.07
2023-04-03T02:14:52.774Z,90.98
2023-04-03T02:17:19.413Z,91.00
2023-04-03T02:19:46.084Z,91.17
2023-04-03T02:22:12.733Z,91.43
2023-04-03T02:24:41.338Z,91.54
2023-04-03T02:27:08.092Z,91.71
2023-04-03T02:29:34.720Z,91.66
2023-04-03T02:32:01.486Z,91.71
2023-04-03T02:34:28.176Z,91.74
2023-04-03T02:36:54.826Z,92.01
2023-04-03T02:39:21.960Z,92.08
2023-04-03T02:41:48.571Z,92.19
2023-04-03T02:44:15.579Z,92.25
2023-04-03T02:46:42.293Z,92.45
2023-04-03T02:49:08.946Z,92.40
2023-04-03T02:51:35.678Z,92.58
2023-04-03T02:54:02.634Z,92.71
2023-04-03T02:56:29.338Z,92.83
2023-04-03T02:58:56.046Z,92.78
2023-04-03T03:01:22.940Z,92.87
2023-04-03T03:03:49.694Z,92.82
2023-04-03T03:06:18.073Z,92.95
2023-04-03T03:08:44.972Z,93.13
2023-04-03T03:11:12.111Z,93.14
2023-04-03T03:13:39.879Z,93.30
2023-04-03T03:16:07.104Z,93.40
2023-04-03T03:18:34.853Z,93.42
2023-04-03T03:21:02.989Z,93.58
2023-04-03T03:23:31.328Z,93.58
2023-04-03T03:26:00.336Z,93.86
2023-04-03T03:28:27.143Z,94.05
2023-04-03T03:30:54.188Z,94.04
2023-04-03T03:33:21.231Z,94.31
2023-04-03T03:35:47.888Z,94.41
2023-04-03T03:38:14.626Z,94.50
2023-04-03T03:40:41.428Z,94.77
2023-04-03T03:43:08.211Z,94.72
2023-04-03T03:45:35.214Z,94.92
2023-04-03T03:48:03.055Z,95.03
2023-04-03T03:50:29.786Z,95.12
2023-04-03T03:52:56.613Z,95.16
2023-04-03T03:55:23.353Z,95.25
2023-04-03T03:57:50.003Z,95.37
2023-04-03T04:00:17.210Z,95.83
2023-04-03T04:02:44.605Z,95.81
2023-04-03T04:05:11.339Z,96.08
2023-04-03T04:07:38.043Z,96.02
2023-04-03T04:10:05.136Z,96.16
2023-04-03T04:12:31.828Z,96.45
2023-04-03T04:14:58.496Z,96.70
2023-04-03T04:17:25.324Z,96.57
2023-04-03T04:19:52.014Z,96.81
2023-04-03T04:22:18.714Z,96.89
2023-04-03T04:24:45.343Z,97.30
2023-04-03T04:27:12.070Z,97.30
2023-04-03T04:29:38.775Z,97.61
2023-04-03T04:32:05.712Z,97.50
2023-04-03T04:34:33.130Z,97.41
2023-04-03T04:36:59.870Z,97.28
2023-04-03T04:39:26.573Z,97.47
2023-04-03T04:41:53.357Z,97.50
2023-04-03T04:44:21.174Z,97.47
2023-04-03T04:46:48.032Z,97.21
2023-04-03T04:49:14.764Z,97.24
2023-04-03T04:51:51.581Z,97.26
2023-04-03T04:54:19.272Z,97.08
2023-04-03T04:56:46.082Z,97.06
2023-04-03T04:59:13.071Z,97.13
2023-04-03T05:01:40.261Z,97.18
2023-04-03T05:04:07.125Z,97.28
2023-04-03T05:06:34.071Z,97.35
2023-04-03T05:09:00.783Z,97.30
2023-04-03T05:11:27.855Z,97.25
2023-04-03T05:13:54.502Z,97.24
2023-04-03T05:16:21.280Z,97.11
2023-04-03T05:18:48.067Z,97.00
2023-04-03T05:21:14.751Z,96.82
2023-04-03T05:23:41.679Z,96.67
2023-04-03T05:26:08.395Z,96.60
2023-04-03T05:28:35.334Z,96.47
2023-04-03T05:31:01.991Z,96.23
2023-04-03T05:33:28.745Z,96.21
2023-04-03T05:35:55.830Z,96.31
2023-04-03T05:38:22.771Z,96.04
2023-04-03T05:40:49.585Z,95.95
2023-04-03T05:43:16.702Z,95.91
2023-04-03T05:45:46.285Z,95.70
2023-04-03T05:48:13.914Z,95.62
2023-04-03T05:50:42.686Z,95.54
2023-04-03T05:53:28.134Z,95.67
2023-04-03T05:55:55.097Z,95.75
2023-04-03T05:58:21.777Z,95.63
2023-04-03T06:00:48.589Z,95.60
2023-04-03T06:03:15.594Z,95.67
2023-04-03T06:05:42.717Z,95.67
2023-04-03T06:08:10.169Z,95.77
2023-04-03T06:10:37.517Z,95.77
2023-04-03T06:13:04.264Z,96.07
2023-04-03T06:15:30.957Z,96.18
2023-04-03T06:17:57.978Z,96.35
2023-04-03T06:20:25.592Z,96.40
2023-04-03T06:22:52.575Z,96.35
2023-04-03T06:25:20.005Z,96.46
2023-04-03T06:27:46.908Z,96.47
2023-04-03T06:30:14.172Z,96.52
2023-04-03T06:32:41.528Z,96.39
2023-04-03T06:35:08.653Z,96.56
2023-04-03T06:37:35.419Z,96.56
2023-04-03T06:40:02.757Z,96.65
2023-04-03T06:42:29.635Z,96.60
2023-04-03T06:44:56.749Z,96.68
2023-04-03T06:47:23.361Z,96.67
2023-04-03T06:49:50.035Z,96.58
2023-04-03T06:52:16.700Z,96.36
2023-04-03T06:54:43.397Z,96.45
2023-04-03T06:57:10.225Z,96.33
2023-04-03T06:59:37.666Z,96.42
2023-04-03T07:02:04.867Z,96.39
2023-04-03T07:04:31.818Z,96.39
2023-04-03T07:06:58.534Z,96.43
2023-04-03T07:09:25.717Z,96.29
2023-04-03T07:11:52.399Z,96.14
2023-04-03T07:14:19.328Z,96.13
2023-04-03T07:16:45.952Z,95.88
2023-04-03T07:19:12.881Z,95.91
2023-04-03T07:21:39.854Z,95.54
2023-04-03T07:24:07.515Z,95.44
2023-04-03T07:26:36.366Z,95.48
2023-04-03T07:29:03.469Z,95.12
2023-04-03T07:31:30.215Z,94.95
2023-04-03T07:33:58.253Z,94.85
2023-04-03T07:36:25.321Z,94.72
2023-04-03T07:38:52.072Z,94.51
2023-04-03T07:41:21.248Z,94.40
2023-04-03T07:43:48.147Z,94.34
2023-04-03T07:46:14.928Z,94.22
2023-04-03T07:48:41.893Z,93.94
2023-04-03T07:51:08.598Z,93.60
2023-04-03T07:53:35.374Z,93.51
2023-04-03T07:56:03.769Z,93.41
2023-04-03T07:58:30.935Z,93.40
2023-04-03T08:00:58.388Z,93.35
2023-04-03T08:03:25.582Z,93.35
2023-04-03T08:05:52.551Z,93.05
2023-04-03T08:08:22.714Z,93.03
2023-04-03T08:10:54.809Z,93.09
2023-04-03T08:13:22.406Z,92.94
2023-04-03T08:15:49.239Z,92.94
2023-04-03T08:18:17.050Z,92.62
2023-04-03T08:20:44.330Z,92.46
2023-04-03T08:23:11.430Z,92.46
2023-04-03T08:25:42.346Z,92.48
2023-04-03T08:28:10.662Z,92.28
2023-04-03T08:30:39.800Z,92.14
2023-04-03T08:33:07.270Z,92.23
2023-04-03T08:35:34.845Z,92.15
2023-04-03T08:38:03.010Z,92.07
2023-04-03T08:40:30.744Z,91.91
2023-04-03T08:42:57.388Z,91.82
2023-04-03T08:45:51.526Z,91.63
2023-04-03T08:48:23.481Z,91.36
2023-04-03T08:51:03.171Z,91.38
2023-04-03T08:53:35.067Z,91.50
2023-04-03T08:56:09.354Z,91.69
2023-04-03T08:58:48.994Z,91.38
2023-04-03T09:01:24.551Z,90.92
2023-04-03T09:03:51.974Z,90.95
2023-04-03T09:06:33.870Z,90.94
2023-04-03T09:09:34.141Z,90.69
2023-04-03T09:12:20.929Z,90.36
2023-04-03T09:15:01.440Z,90.24
2023-04-03T09:17:58.810Z,89.44
2023-04-03T09:20:43.574Z,89.72
2023-04-03T09:23:25.860Z,90.10
2023-04-03T09:25:57.667Z,89.45
2023-04-03T09:28:24.435Z,88.77
2023-04-03T09:30:51.057Z,89.46
2023-04-03T09:33:18.659Z,87.63
2023-04-03T09:35:48.641Z,86.27
2023-04-03T09:38:22.211Z,85.19
2023-04-03T09:41:06.462Z,85.34
2023-04-03T09:43:35.508Z,86.13
2023-04-03T09:46:40.527Z,85.00
2023-04-03T09:49:13.073Z,84.75
2023-04-03T09:51:39.860Z,84.28
2023-04-03T09:54:37.010Z,84.59
2023-04-03T09:57:16.294Z,84.51
2023-04-03T10:00:00.688Z,84.61
2023-04-03T10:02:41.331Z,84.87
2023-04-03T10:05:32.864Z,84.88
2023-04-03T10:08:11.222Z,84.87
2023-04-03T10:10:39.232Z,84.63
2023-04-03T10:13:16.430Z,84.52
2023-04-03T10:16:01.360Z,84.69
2023-04-03T10:18:45.791Z,84.72
2023-04-03T10:21:49.688Z,84.65
2023-04-03T10:24:51.899Z,84.56
2023-04-03T10:27:23.317Z,84.39
2023-04-03T10:30:15.340Z,84.47
2023-04-03T10:32:41.964Z,84.40
2023-04-03T10:35:54.161Z,84.53
2023-04-03T10:38:42.478Z,84.59
2023-04-03T10:41:21.778Z,84.56
2023-04-03T10:43:56.435Z,84.84
2023-04-03T10:46:43.115Z,84.73
2023-04-03T10:49:26.531Z,84.80
2023-04-03T10:52:00.590Z,84.92
2023-04-03T10:54:42.579Z,84.98
2023-04-03T10:57:13.803Z,84.70
2023-04-03T10:59:55.123Z,84.73
2023-04-03T11:02:34.555Z,84.70
2023-04-03T11:05:16.621Z,84.64
2023-04-03T11:07:54.297Z,84.60
2023-04-03T11:10:30.132Z,84.58
2023-04-03T11:13:09.306Z,84.56
2023-04-03T11:15:36.587Z,84.35
2023-04-03T11:18:11.890Z,83.96
2023-04-03T11:20:45.490Z,84.19
2023-04-03T11:23:42.315Z,84.01
2023-04-03T11:26:18.862Z,83.93
2023-04-03T11:28:46.992Z,83.78
2023-04-03T11:31:25.245Z,83.49
2023-04-03T11:34:37.317Z,83.66
2023-04-03T11:37:14.278Z,83.58
2023-04-03T11:39:49.094Z,83.80
2023-04-03T11:42:29.078Z,84.13
2023-04-03T11:45:25.666Z,83.56
2023-04-03T11:47:55.088Z,83.20
2023-04-03T11:50:43.379Z,83.21
2023-04-03T11:53:13.056Z,83.07
2023-04-03T11:55:50.021Z,82.67
2023-04-03T11:58:19.491Z,82.72
2023-04-03T12:00:52.178Z,82.56
2023-04-03T12:03:31.034Z,82.85
2023-04-03T12:06:07.149Z,82.42
2023-04-03T12:08:33.781Z,82.45
2023-04-03T12:11:12.341Z,82.59
2023-04-03T12:13:43.428Z,82.75
2023-04-03T12:16:27.386Z,82.63
2023-04-03T12:18:54.153Z,82.66
2023-04-03T12:21:44.185Z,82.23
2023-04-03T12:24:13.533Z,82.53
2023-04-03T12:27:03.943Z,82.12
2023-04-03T12:29:34.334Z,81.90
2023-04-03T12:32:25.474Z,81.54
2023-04-03T12:35:29.655Z,81.41
2023-04-03T12:38:28.256Z,81.44
2023-04-03T12:41:22.647Z,81.13
2023-04-03T12:44:14.924Z,80.80
2023-04-03T12:46:47.317Z,80.99
2023-04-03T12:49:36.221Z,80.72
2023-04-03T12:52:07.209Z,81.04
2023-04-03T12:54:37.434Z,80.96
2023-04-03T12:57:16.337Z,80.95
2023-04-03T12:59:46.462Z,80.78
2023-04-03T13:02:22.378Z,80.51
2023-04-03T13:04:50.155Z,80.80
2023-04-03T13:07:34.303Z,80.21
2023-04-03T13:10:07.893Z,80.20
2023-04-03T13:12:36.498Z,79.91
2023-04-03T13:15:18.934Z,79.70
2023-04-03T13:17:46.432Z,79.55
2023-04-03T13:20:25.182Z,79.28
2023-04-03T13:23:01.050Z,79.01
2023-04-03T13:25:32.538Z,78.79
2023-04-03T13:28:12.537Z,78.50
2023-04-03T13:30:42.707Z,78.90
2023-04-03T13:33:26.823Z,78.72
2023-04-03T13:36:05.549Z,78.59
2023-04-03T13:38:37.326Z,78.31
2023-04-03T13:41:22.900Z,77.83
2023-04-03T13:43:50.752Z,77.80
2023-04-03T13:46:18.565Z,78.00
2023-04-03T13:48:52.138Z,77.10
2023-04-03T13:51:28.221Z,76.92
2023-04-03T13:54:14.301Z,76.80
2023-04-03T13:56:43.113Z,76.48
2023-04-03T13:59:13.010Z,76.25
2023-04-03T14:02:07.886Z,75.97
2023-04-03T14:04:46.503Z,75.32
2023-04-03T14:07:14.734Z,75.75
2023-04-03T14:09:41.716Z,76.05
2023-04-03T14:12:32.586Z,75.88
2023-04-03T14:15:02.031Z,75.88
2023-04-03T14:17:30.059Z,75.33
2023-04-03T14:19:57.454Z,75.15
2023-04-03T14:22:31.156Z,75.07
2023-04-03T14:24:58.834Z,74.49
2023-04-03T14:27:34.572Z,73.83
2023-04-03T14:30:04.059Z,73.83
2023-04-03T14:32:30.987Z,73.79
2023-04-03T14:34:59.266Z,73.22
2023-04-03T14:37:30.309Z,72.86
2023-04-03T14:39:59.159Z,72.57
2023-04-03T14:42:31.870Z,72.40
2023-04-03T14:44:59.567Z,72.25
2023-04-03T14:47:31.798Z,72.22
2023-04-03T14:50:01.204Z,71.96
2023-04-03T14:52:32.225Z,71.35
2023-04-03T14:54:59.421Z,71.43
2023-04-03T14:57:28.499Z,71.09
2023-04-03T14:59:55.444Z,71.23
2023-04-03T15:02:33.180Z,70.99
2023-04-03T15:05:01.799Z,71.20
2023-04-03T15:07:30.687Z,71.18
2023-04-03T15:09:57.661Z,71.18
2023-04-03T15:12:25.805Z,70.86
2023-04-03T15:14:57.644Z,70.19
2023-04-03T15:17:26.907Z,70.18
2023-04-03T15:19:53.609Z,69.98
2023-04-03T15:22:21.182Z,69.41
2023-04-03T15:24:48.144Z,69.73
2023-04-03T15:27:16.477Z,69.58
2023-04-03T15:29:44.184Z,69.33
2023-04-03T15:32:11.535Z,69.37
2023-04-03T15:34:38.967Z,69.27
2023-04-03T15:37:06.454Z,69.23
2023-04-03T15:39:33.299Z,68.53
2023-04-03T15:42:07.176Z,68.83
2023-04-03T15:44:35.589Z,68.53
2023-04-03T15:47:03.115Z,68.36
2023-04-03T15:49:29.826Z,68.29
2023-04-03T15:51:56.597Z,68.65
2023-04-03T15:54:25.024Z,68.56
2023-04-03T15:56:52.608Z,68.51
2023-04-03T15:59:19.960Z,68.88
2023-04-03T16:01:47.050Z,68.66
2023-04-03T16:04:15.597Z,68.53
2023-04-03T16:06:43.650Z,68.59
2023-04-03T16:09:11.125Z,68.77
2023-04-03T16:11:40.346Z,69.10
2023-04-03T16:14:08.535Z,68.97
2023-04-03T16:16:36.631Z,68.86
2023-04-03T16:19:03.975Z,68.79
2023-04-03T16:21:30.832Z,68.60
2023-04-03T16:23:59.424Z,68.78
2023-04-03T16:26:27.182Z,68.78
2023-04-03T16:28:54.849Z,68.69
2023-04-03T16:31:22.802Z,68.65
2023-04-03T16:33:49.683Z,68.46
2023-04-03T16:36:16.707Z,67.93
2023-04-03T16:38:43.413Z,68.29
2023-04-03T16:41:10.041Z,68.33
2023-04-03T16:43:37.910Z,68.29
2023-04-03T16:46:04.765Z,68.65
2023-04-03T16:48:32.329Z,68.28
2023-04-03T16:50:59.332Z,68.55
2023-04-03T16:53:27.084Z,68.53
2023-04-03T16:55:54.154Z,68.42
2023-04-03T16:58:23.375Z,68.80
2023-04-03T17:00:51.428Z,68.74
2023-04-03T17:03:18.335Z,68.95
2023-04-03T17:05:48.763Z,68.99
2023-04-03T17:08:17.324Z,68.80
2023-04-03T17:10:43.997Z,69.24
2023-04-03T17:13:10.843Z,69.01
2023-04-03T17:15:37.859Z,69.17
2023-04-03T17:18:04.892Z,69.23
2023-04-03T17:20:31.650Z,69.49
2023-04-03T17:22:58.662Z,69.72
2023-04-03T17:25:25.300Z,69.85
2023-04-03T17:27:52.009Z,70.19
2023-04-03T17:30:18.650Z,70.47
2023-04-03T17:32:45.444Z,70.67
2023-04-03T17:35:12.151Z,71.03
2023-04-03T17:37:38.937Z,71.24
2023-04-03T17:40:06.763Z,71.31
2023-04-03T17:42:33.630Z,71.55
2023-04-03T17:45:01.216Z,71.75
2023-04-03T17:47:28.048Z,71.80
2023-04-03T17:49:54.858Z,72.23
2023-04-03T17:52:25.496Z,72.49
2023-04-03T17:54:52.238Z,72.58
2023-04-03T17:57:19.131Z,72.93
2023-04-03T17:59:46.281Z,73.00
2023-04-03T18:02:12.923Z,72.98
2023-04-03T18:04:39.640Z,73.20
2023-04-03T18:07:09.710Z,73.18
2023-04-03T18:09:38.019Z,73.43
2023-04-03T18:12:07.303Z,73.75
2023-04-03T18:14:36.125Z,73.75
2023-04-03T18:17:03.042Z,74.06
2023-04-03T18:19:30.145Z,74.08
2023-04-03T18:22:02.255Z,74.24
2023-04-03T18:24:32.049Z,74.07
2023-04-03T18:27:02.150Z,74.37
2023-04-03T18:29:32.636Z,74.68
2023-04-03T18:32:04.286Z,74.74
2023-04-03T18:34:31.816Z,74.60
2023-04-03T18:36:58.470Z,74.92
2023-04-03T18:39:26.982Z,75.07
2023-04-03T18:41:55.111Z,75.24
2023-04-03T18:44:25.074Z,75.46
2023-04-03T18:46:53.950Z,75.77
2023-04-03T18:49:21.136Z,75.93
2023-04-03T18:51:48.088Z,76.18
2023-04-03T18:54:14.689Z,76.03
2023-04-03T18:56:41.424Z,76.10
2023-04-03T18:59:08.174Z,76.27
2023-04-03T19:01:35.241Z,76.22
2023-04-03T19:04:02.445Z,76.45
2023-04-03T19:06:29.580Z,76.35
2023-04-03T19:08:56.433Z,76.52
2023-04-03T19:11:23.217Z,76.84
2023-04-03T19:16:20.075Z,76.98
2023-04-03T19:18:46.785Z,77.00
2023-04-03T19:21:15.013Z,77.08
2023-04-03T19:23:44.686Z,77.18
2023-04-03T19:26:13.264Z,77.33
2023-04-03T19:28:41.704Z,77.41
2023-04-03T19:31:17.349Z,77.45
2023-04-03T19:33:45.331Z,77.62
2023-04-03T19:36:12.399Z,77.73
2023-04-03T19:38:39.928Z,78.20
2023-04-03T19:41:13.232Z,78.06
2023-04-03T19:43:44.564Z,78.21
2023-04-03T19:46:11.731Z,78.36
2023-04-03T19:48:38.548Z,78.58
2023-04-03T19:51:06.209Z,78.60
2023-04-03T19:53:33.088Z,78.59
2023-04-03T19:56:00.995Z,78.64
2023-04-03T19:58:29.983Z,78.76
2023-04-03T20:00:58.221Z,78.77
2023-04-03T20:03:26.154Z,78.78
2023-04-03T20:05:55.208Z,79.02
2023-04-03T20:08:21.951Z,78.83
2023-04-03T20:10:49.100Z,79.13
2023-04-03T20:13:15.922Z,79.21
2023-04-03T20:15:44.542Z,79.42
2023-04-03T20:18:19.561Z,79.50
2023-04-03T20:20:57.659Z,79.60
2023-04-03T20:23:30.859Z,79.54
2023-04-03T20:26:09.172Z,79.58
2023-04-03T20:28:38.679Z,79.59
2023-04-03T20:31:06.648Z,79.70
2023-04-03T20:33:33.996Z,79.73
2023-04-03T20:36:01.676Z,79.71
2023-04-03T20:38:28.624Z,79.83
2023-04-03T20:40:55.549Z,79.78
2023-04-03T20:43:23.380Z,79.78
2023-04-03T20:45:51.026Z,80.02
2023-04-03T20:48:18.511Z,79.98
2023-04-03T20:50:46.491Z,80.00
2023-04-03T20:53:15.031Z,80.18
2023-04-03T20:55:42.644Z,79.80
2023-04-03T20:58:09.506Z,79.92
2023-04-03T21:00:37.892Z,79.73
2023-04-03T21:03:05.801Z,79.55
2023-04-03T21:05:34.723Z,79.50
2023-04-03T21:08:40.226Z,79.46
2023-04-03T21:11:45.255Z,79.63
2023-04-03T21:14:49.551Z,79.46
2023-04-03T21:17:16.520Z,79.34
2023-04-03T21:19:46.561Z,79.37
2023-04-03T21:22:14.037Z,79.28
2023-04-03T21:24:41.105Z,79.28
2023-04-03T21:27:08.344Z,79.19
2023-04-03T21:29:35.291Z,79.57
2023-04-03T21:32:02.191Z,79.20
2023-04-03T21:34:30.277Z,79.14
2023-04-03T21:37:09.511Z,79.24
2023-04-03T21:39:36.689Z,79.24
2023-04-03T21:42:03.462Z,79.17
2023-04-03T21:44:30.411Z,79.33
2023-04-03T21:46:57.116Z,79.42
2023-04-03T21:49:25.538Z,79.48
2023-04-03T21:51:52.609Z,79.45
2023-04-03T21:54:20.157Z,79.47
2023-04-03T21:56:52.329Z,79.65
2023-04-03T21:59:19.332Z,79.58
2023-04-03T22:01:46.165Z,79.80
2023-04-03T22:04:12.917Z,79.63
2023-04-03T22:06:39.660Z,79.57
2023-04-03T22:09:06.631Z,79.79
2023-04-03T22:11:33.531Z,79.65
2023-04-03T22:14:01.021Z,79.71
2023-04-03T22:16:27.854Z,79.61
2023-04-03T22:18:55.067Z,79.68
2023-04-03T22:21:22.480Z,79.61
2023-04-03T22:23:49.483Z,79.75
2023-04-03T22:26:16.556Z,79.78
2023-04-03T22:28:47.626Z,79.85
2023-04-03T22:31:16.317Z,80.08
2023-04-03T22:33:44.985Z,80.12
2023-04-03T22:36:13.141Z,80.15
2023-04-03T22:38:43.527Z,80.23
2023-04-03T22:41:10.723Z,80.35
2023-04-03T22:43:38.211Z,80.50
2023-04-03T22:46:07.620Z,80.44
2023-04-03T22:48:35.146Z,80.79
2023-04-03T22:51:07.438Z,80.72
2023-04-03T22:53:35.672Z,80.83
2023-04-03T22:56:04.968Z,80.67
2023-04-03T22:58:31.796Z,80.94
2023-04-03T23:01:12.613Z,80.78
2023-04-03T23:03:41.386Z,80.56
2023-04-03T23:06:09.528Z,80.51
2023-04-03T23:08:41.003Z,80.91
2023-04-03T23:11:09.681Z,80.93
2023-04-03T23:13:36.907Z,80.88
2023-04-03T23:16:04.727Z,81.22
2023-04-03T23:18:39.693Z,81.20
2023-04-03T23:21:07.976Z,81.13
2023-04-03T23:23:34.849Z,81.12
2023-04-03T23:26:02.710Z,81.16
2023-04-03T23:28:29.991Z,81.20
2023-04-03T23:31:10.311Z,81.16
2023-04-03T23:33:38.475Z,81.33
2023-04-03T23:36:08.834Z,81.09
2023-04-03T23:38:36.407Z,81.08
2023-04-03T23:41:03.173Z,81.28
2023-04-03T23:43:31.258Z,81.29
2023-04-03T23:45:58.521Z,81.54
2023-04-03T23:48:25.466Z,81.50
2023-04-03T23:50:52.091Z,81.84
2023-04-03T23:53:19.257Z,81.96
2023-04-03T23:55:46.001Z,81.96
2023-04-03T23:58:12.693Z,82.13
